LA HONDA (LAH)

Elevation: 425' · SAN GREGORIO CR basin · Operator: CAL FIRE

Query executed Sunday at 22:34:01   clock

Provisional data, subject to change.
Select a sensor type for a plot of data.

Earlier

Date   /   Time   RAIN     TEMP     REL HUM     FUEL MS     FUEL TP     WIND SP     WIND DR     PEAK WS     PEAK WD     SOLAR R     BAT VOL    
(PDT)INCHES   DEG F   %   %   DEG F   MPH   DEG   MPH   DEG   W/M^2   VOLTS  
08/27/2016 22:00 0.10 57 87 9 58 3 243 6 221 0.00 13.1
08/27/2016 23:00 0.10 57 88 10 58 1 264 5 233 0.00 13.0
08/28/2016 00:00 0.10 57 89 10 58 4 231 6 221 0.00 13.0
08/28/2016 01:00 0.10 56 91 11 57 3 222 6 227 0.00 13.0
08/28/2016 02:00 0.10 56 90 12 57 2 260 6 201 0.00 13.0
08/28/2016 03:00 0.10 56 89 13 57 1 275 4 217 0.00 12.9
08/28/2016 04:00 0.10 56 90 14 57 2 240 5 247 0.00 12.9
08/28/2016 05:00 0.10 56 91 15 56 2 176 6 202 0.00 12.9
08/28/2016 06:00 0.10 56 91 15 56 3 221 5 224 0.00 12.9
08/28/2016 07:00 0.10 55 93 16 56 1 359 5 49 2.00 12.9
08/28/2016 08:00 0.10 56 90 16 58 2 256 4 232 29.00 12.9
08/28/2016 09:00 0.10 59 85 16 63 3 250 5 239 116.00 13.4
08/28/2016 10:00 0.10 64 78 14 75 3 253 7 229 365.00 13.7
08/28/2016 11:00 0.10 70 64 10 87 4 241 9 220 669.00 13.8
08/28/2016 12:00 0.10 74 54 8 94 3 276 10 217 791.00 13.6
08/28/2016 13:00 0.10 75 51 9 98 3 282 7 254 861.00 13.5
08/28/2016 14:00 0.10 75 51 8 96 3 273 7 230 869.00 13.5
08/28/2016 15:00 0.10 75 49 7 101 4 282 9 295 819.00 13.6
08/28/2016 16:00 0.10 74 50 7 96 3 261 8 206 713.00 13.5
08/28/2016 17:00 0.10 72 52 6 95 4 254 8 320 561.00 13.5
08/28/2016 18:00 0.10 68 58 6 79 3 277 6 305 361.00 13.6
08/28/2016 19:00 0.10 62 73 6 61 2 257 5 229 66.00 13.4
08/28/2016 20:00 0.10 56 87 6 53 1 244 5 258 8.00 13.2
08/28/2016 21:00 0.10 54 95 7 50 2 78 3 277 0.00 13.1
08/28/2016 22:00 0.10 53 98 8 51 2 63 3 99 0.00 13.0

Later | Latest

Warning! This data is preliminary and subject to revision.

Show LAH Map | 24 Hours LAH Data | Plot all LAH Sensors | Daily LAH Data | LAH Info